createdAt,value
2019-04-25T00:02:13.295Z,11.11
2019-04-25T00:05:03.275Z,11.10
2019-04-25T00:07:52.265Z,11.03
2019-04-25T00:10:42.687Z,11.12
2019-04-25T00:13:29.556Z,11.00
2019-04-25T00:16:17.860Z,10.88
2019-04-25T00:19:03.680Z,10.92
2019-04-25T00:22:11.692Z,10.89
2019-04-25T00:25:29.231Z,10.89
2019-04-25T00:28:15.990Z,10.88
2019-04-25T00:31:02.490Z,10.85
2019-04-25T00:33:49.570Z,10.80
2019-04-25T00:36:35.740Z,10.82
2019-04-25T00:39:22.162Z,10.80
2019-04-25T00:42:08.610Z,10.79
2019-04-25T00:44:54.675Z,10.70
2019-04-25T00:47:42.424Z,10.67
2019-04-25T00:50:28.920Z,10.60
2019-04-25T00:53:17.749Z,10.51
2019-04-25T00:56:03.947Z,10.43
2019-04-25T00:59:01.907Z,10.42
2019-04-25T01:02:09.096Z,10.38
2019-04-25T01:04:55.466Z,10.42
2019-04-25T01:07:42.245Z,10.53
2019-04-25T01:10:28.892Z,10.55
2019-04-25T01:13:14.865Z,10.59
2019-04-25T01:16:04.128Z,10.56
2019-04-25T01:18:50.829Z,10.60
2019-04-25T01:21:37.245Z,10.62
2019-04-25T01:24:26.455Z,10.61
2019-04-25T01:27:13.544Z,10.61
2019-04-25T01:30:00.105Z,10.62
2019-04-25T01:32:46.806Z,10.68
2019-04-25T01:35:46.213Z,10.60
2019-04-25T01:38:53.374Z,10.46
2019-04-25T01:42:18.646Z,10.43
2019-04-25T01:45:05.240Z,10.32
2019-04-25T01:47:52.049Z,10.10
2019-04-25T01:50:38.942Z,9.93
2019-04-25T01:53:25.130Z,9.87
2019-04-25T01:56:11.335Z,9.84
2019-04-25T01:58:57.804Z,9.81
2019-04-25T02:01:44.130Z,9.87
2019-04-25T02:04:30.025Z,9.84
2019-04-25T02:07:16.386Z,9.79
2019-04-25T02:10:03.777Z,9.82
2019-04-25T02:12:55.606Z,9.67
2019-04-25T02:15:43.312Z,9.56
2019-04-25T02:18:29.626Z,9.51
2019-04-25T02:21:15.886Z,9.45
2019-04-25T02:24:03.898Z,9.54
2019-04-25T02:26:54.718Z,9.50
2019-04-25T02:29:41.235Z,9.43
2019-04-25T02:32:27.681Z,9.50
2019-04-25T02:35:14.769Z,9.56
2019-04-25T02:38:03.788Z,9.37
2019-04-25T02:40:48.957Z,9.34
2019-04-25T02:43:35.328Z,9.46
2019-04-25T02:46:41.590Z,10.12
2019-04-25T02:49:44.724Z,10.24
2019-04-25T02:52:39.416Z,10.20
2019-04-25T02:55:31.665Z,10.08
2019-04-25T02:58:14.283Z,9.93
2019-04-25T03:01:10.743Z,9.83
2019-04-25T03:03:48.207Z,9.79
2019-04-25T03:06:35.163Z,9.72
2019-04-25T03:09:21.601Z,9.68
2019-04-25T03:12:09.335Z,9.67
2019-04-25T03:14:55.461Z,9.66
2019-04-25T03:17:44.130Z,9.62
2019-04-25T03:20:45.180Z,9.59
2019-04-25T03:23:42.190Z,9.62
2019-04-25T03:26:37.964Z,9.65
2019-04-25T03:29:15.458Z,9.70
2019-04-25T03:32:02.867Z,9.70
2019-04-25T03:34:49.855Z,9.69
2019-04-25T03:37:36.211Z,9.73
2019-04-25T03:40:23.541Z,9.69
2019-04-25T03:43:09.880Z,9.43
2019-04-25T03:45:56.195Z,9.11
2019-04-25T03:48:43.961Z,8.92
2019-04-25T03:51:30.435Z,9.08
2019-04-25T03:54:16.645Z,9.06
2019-04-25T03:57:05.284Z,9.11
2019-04-25T03:59:51.452Z,9.11
2019-04-25T04:02:37.985Z,9.05
2019-04-25T04:05:24.090Z,9.05
2019-04-25T04:08:10.214Z,9.08
2019-04-25T04:10:56.314Z,9.12
2019-04-25T04:13:43.988Z,9.18
2019-04-25T04:16:34.840Z,9.18
2019-04-25T04:19:20.845Z,9.31
2019-04-25T04:22:24.033Z,9.31
2019-04-25T04:25:11.631Z,9.41
2019-04-25T04:27:57.775Z,9.61
2019-04-25T04:30:45.464Z,9.83
2019-04-25T04:33:34.326Z,10.07
2019-04-25T04:36:19.960Z,10.15
2019-04-25T04:39:06.283Z,10.17
2019-04-25T04:41:53.529Z,10.70
2019-04-25T04:44:40.915Z,11.49
2019-04-25T04:47:27.176Z,11.99
2019-04-25T04:50:14.502Z,11.73
2019-04-25T04:53:01.365Z,11.64
2019-04-25T04:55:47.556Z,11.45
2019-04-25T04:58:34.334Z,12.36
2019-04-25T05:01:24.585Z,13.14
2019-04-25T05:04:20.206Z,13.76
2019-04-25T05:07:16.303Z,13.94
2019-04-25T05:10:03.396Z,14.31
2019-04-25T05:12:49.634Z,12.98
2019-04-25T05:15:35.654Z,12.46
2019-04-25T05:18:34.553Z,12.53
2019-04-25T05:21:10.589Z,12.73
2019-04-25T05:23:56.650Z,12.93
2019-04-25T05:26:44.063Z,13.50
2019-04-25T05:29:30.856Z,14.16
2019-04-25T05:32:17.301Z,15.54
2019-04-25T05:35:04.651Z,14.39
2019-04-25T05:37:51.044Z,14.88
2019-04-25T05:40:50.571Z,14.35
2019-04-25T05:43:36.823Z,14.74
2019-04-25T05:46:23.715Z,14.26
2019-04-25T05:49:11.025Z,14.73
2019-04-25T05:51:57.089Z,15.09
2019-04-25T05:54:44.339Z,15.30
2019-04-25T05:57:30.380Z,15.72
2019-04-25T06:00:17.982Z,15.49
2019-04-25T06:03:04.794Z,15.10
2019-04-25T06:05:50.905Z,16.77
2019-04-25T06:08:44.186Z,17.24
2019-04-25T06:11:46.750Z,17.89
2019-04-25T06:14:33.387Z,17.15
2019-04-25T06:17:26.028Z,17.88
2019-04-25T06:20:15.235Z,17.96
2019-04-25T06:23:20.545Z,18.03
2019-04-25T06:26:19.225Z,18.36
2019-04-25T06:28:59.505Z,18.01
2019-04-25T06:31:43.967Z,17.92
2019-04-25T06:34:33.042Z,18.54
2019-04-25T06:37:21.354Z,18.25
2019-04-25T06:40:08.086Z,17.40
2019-04-25T06:42:55.249Z,17.57
2019-04-25T06:45:50.417Z,17.32
2019-04-25T06:48:40.890Z,17.13
2019-04-25T06:51:46.146Z,17.44
2019-04-25T06:54:33.492Z,17.50
2019-04-25T06:57:22.016Z,17.65
2019-04-25T07:00:10.580Z,18.06
2019-04-25T07:02:56.580Z,18.26
2019-04-25T07:05:43.958Z,17.92
2019-04-25T07:08:31.142Z,18.53
2019-04-25T07:11:17.680Z,17.93
2019-04-25T07:14:04.239Z,17.94
2019-04-25T07:16:50.639Z,18.21
2019-04-25T07:19:36.910Z,17.45
2019-04-25T07:22:23.900Z,18.16
2019-04-25T07:25:13.133Z,18.29
2019-04-25T07:28:31.063Z,17.42
2019-04-25T07:31:35.704Z,18.21
2019-04-25T07:34:25.027Z,18.62
2019-04-25T07:37:13.188Z,19.68
2019-04-25T07:39:59.437Z,19.72
2019-04-25T07:42:45.554Z,20.28
2019-04-25T07:45:33.878Z,19.08
2019-04-25T07:48:22.646Z,19.63
2019-04-25T07:51:08.731Z,19.30
2019-04-25T07:53:54.794Z,19.29
2019-04-25T07:56:41.120Z,19.10
2019-04-25T07:59:27.902Z,19.52
2019-04-25T08:02:14.280Z,20.17
2019-04-25T08:05:04.285Z,19.33
2019-04-25T08:07:50.835Z,18.94
2019-04-25T08:11:01.280Z,18.22
2019-04-25T08:14:14.292Z,17.79
2019-04-25T08:17:03.698Z,17.51
2019-04-25T08:19:49.790Z,17.46
2019-04-25T08:22:50.310Z,17.40
2019-04-25T08:25:24.800Z,17.31
2019-04-25T08:28:13.841Z,16.94
2019-04-25T08:31:01.555Z,17.39
2019-04-25T08:33:47.655Z,17.32
2019-04-25T08:36:36.737Z,17.33
2019-04-25T08:39:21.737Z,17.46
2019-04-25T08:42:07.995Z,17.84
2019-04-25T08:44:53.892Z,18.85
2019-04-25T08:47:40.230Z,18.63
2019-04-25T08:50:34.828Z,18.89
2019-04-25T08:53:21.948Z,18.71
2019-04-25T08:56:15.014Z,18.35
2019-04-25T08:59:34.070Z,18.09
2019-04-25T09:02:19.366Z,18.35
2019-04-25T09:05:30.377Z,18.75
2019-04-25T09:08:16.439Z,18.58
2019-04-25T09:11:03.477Z,18.80
2019-04-25T09:13:49.590Z,19.17
2019-04-25T09:16:36.629Z,18.52
2019-04-25T09:19:24.116Z,18.43
2019-04-25T09:22:10.168Z,18.75
2019-04-25T09:24:56.275Z,18.68
2019-04-25T09:27:43.789Z,18.66
2019-04-25T09:30:30.593Z,19.10
2019-04-25T09:33:16.881Z,18.88
2019-04-25T09:36:03.135Z,19.02
2019-04-25T09:38:53.855Z,19.57
2019-04-25T09:41:40.145Z,20.04
2019-04-25T09:44:32.555Z,20.09
2019-04-25T09:47:18.749Z,19.64
2019-04-25T09:50:08.595Z,19.37
2019-04-25T09:52:54.790Z,19.69
2019-04-25T09:56:04.228Z,19.61
2019-04-25T09:58:56.575Z,19.74
2019-04-25T10:01:45.118Z,19.67
2019-04-25T10:04:34.467Z,19.42
2019-04-25T10:07:25.931Z,18.90
2019-04-25T10:10:13.532Z,19.05
2019-04-25T10:13:00.879Z,19.12
2019-04-25T10:16:15.540Z,19.13
2019-04-25T10:19:03.394Z,19.08
2019-04-25T10:21:50.260Z,19.17
2019-04-25T10:24:37.364Z,19.41
2019-04-25T10:27:24.750Z,19.71
2019-04-25T10:30:19.145Z,19.59
2019-04-25T10:33:04.069Z,19.67
2019-04-25T10:35:56.813Z,19.65
2019-04-25T10:38:40.155Z,19.84
2019-04-25T10:41:26.766Z,20.21
2019-04-25T10:44:14.116Z,19.92
2019-04-25T10:47:10.939Z,20.08
2019-04-25T10:49:59.169Z,19.68
2019-04-25T10:52:46.163Z,19.51
2019-04-25T10:55:38.974Z,19.34
2019-04-25T10:58:25.269Z,19.37
2019-04-25T11:01:11.453Z,19.58
2019-04-25T11:04:04.712Z,19.63
2019-04-25T11:06:51.734Z,19.56
2019-04-25T11:09:40.625Z,19.70
2019-04-25T11:12:28.855Z,19.65
2019-04-25T11:15:14.980Z,19.76
2019-04-25T11:18:01.085Z,19.94
2019-04-25T11:20:47.330Z,20.22
2019-04-25T11:23:33.486Z,20.25
2019-04-25T11:26:19.525Z,19.97
2019-04-25T11:29:05.830Z,20.19
2019-04-25T11:31:53.394Z,19.96
2019-04-25T11:34:39.992Z,19.81
2019-04-25T11:37:29.110Z,20.00
2019-04-25T11:40:35.755Z,20.26
2019-04-25T11:43:30.925Z,20.21
2019-04-25T11:46:17.665Z,20.24
2019-04-25T11:49:04.492Z,20.45
2019-04-25T11:51:51.025Z,20.81
2019-04-25T11:54:37.659Z,20.80
2019-04-25T11:57:23.680Z,20.84
2019-04-25T12:00:21.471Z,20.65
2019-04-25T12:02:58.153Z,20.79
2019-04-25T12:05:45.792Z,20.90
2019-04-25T12:08:33.559Z,21.22
2019-04-25T12:11:20.031Z,21.60
2019-04-25T12:14:06.220Z,21.46
2019-04-25T12:16:53.223Z,21.46
2019-04-25T12:19:40.571Z,21.26
2019-04-25T12:22:26.868Z,21.34
2019-04-25T12:25:13.424Z,21.40
2019-04-25T12:28:00.985Z,21.67
2019-04-25T12:30:47.502Z,21.79
2019-04-25T12:33:33.532Z,21.64
2019-04-25T12:36:19.685Z,21.48
2019-04-25T12:39:07.151Z,21.42
2019-04-25T12:41:54.431Z,21.38
2019-04-25T12:44:59.140Z,21.61
2019-04-25T12:47:47.744Z,21.34
2019-04-25T12:50:35.319Z,21.19
2019-04-25T12:53:21.621Z,21.14
2019-04-25T12:56:07.890Z,21.22
2019-04-25T12:58:55.105Z,21.18
2019-04-25T13:01:43.404Z,21.31
2019-04-25T13:04:31.199Z,21.31
2019-04-25T13:07:18.612Z,21.58
2019-04-25T13:10:15.362Z,21.46
2019-04-25T13:13:04.689Z,21.39
2019-04-25T13:15:50.947Z,21.51
2019-04-25T13:18:37.170Z,21.46
2019-04-25T13:21:23.540Z,21.54
2019-04-25T13:24:10.520Z,21.46
2019-04-25T13:27:23.490Z,21.82
2019-04-25T13:30:24.630Z,22.00
2019-04-25T13:33:30.365Z,22.23
2019-04-25T13:36:17.740Z,22.09
2019-04-25T13:39:09.846Z,21.91
2019-04-25T13:41:58.381Z,22.09
2019-04-25T13:44:49.200Z,22.17
2019-04-25T13:47:35.450Z,22.46
2019-04-25T13:50:22.203Z,22.43
2019-04-25T13:53:09.583Z,22.65
2019-04-25T13:55:55.740Z,22.84
2019-04-25T13:58:41.906Z,22.85
2019-04-25T14:01:29.684Z,22.81
2019-04-25T14:04:17.765Z,22.69
2019-04-25T14:07:04.488Z,22.23
2019-04-25T14:09:53.220Z,22.50
2019-04-25T14:12:38.900Z,22.51
2019-04-25T14:15:25.395Z,22.33
2019-04-25T14:18:29.815Z,22.76
2019-04-25T14:21:17.655Z,22.75
2019-04-25T14:24:04.296Z,22.69
2019-04-25T14:26:54.371Z,22.69
2019-04-25T14:29:45.355Z,22.49
2019-04-25T14:32:33.519Z,22.14
2019-04-25T14:35:20.335Z,22.20
2019-04-25T14:38:11.625Z,22.20
2019-04-25T14:40:57.665Z,22.05
2019-04-25T14:43:46.345Z,22.30
2019-04-25T14:46:32.275Z,22.28
2019-04-25T14:49:18.181Z,22.25
2019-04-25T14:52:04.465Z,22.23
2019-04-25T14:55:10.290Z,22.13
2019-04-25T14:57:57.467Z,22.26
2019-04-25T15:00:54.900Z,22.37
2019-04-25T15:03:44.000Z,22.50
2019-04-25T15:06:34.458Z,22.29
2019-04-25T15:09:28.820Z,22.10
2019-04-25T15:12:18.380Z,21.92
2019-04-25T15:15:13.964Z,21.90
2019-04-25T15:18:00.115Z,21.82
2019-04-25T15:20:46.058Z,21.81
2019-04-25T15:23:32.320Z,21.82
2019-04-25T15:26:20.705Z,21.95
2019-04-25T15:29:09.255Z,22.06
2019-04-25T15:31:58.436Z,22.04
2019-04-25T15:34:57.010Z,21.97
2019-04-25T15:37:50.255Z,22.00
2019-04-25T15:40:42.010Z,22.01
2019-04-25T15:43:39.500Z,22.00
2019-04-25T15:46:32.271Z,21.97
2019-04-25T15:49:18.830Z,21.99
2019-04-25T15:52:07.055Z,22.10
2019-04-25T15:55:06.176Z,22.12
2019-04-25T15:57:43.013Z,22.17
2019-04-25T16:00:33.366Z,22.23
2019-04-25T16:03:19.712Z,22.27
2019-04-25T16:06:05.555Z,22.26
2019-04-25T16:08:51.547Z,22.28
2019-04-25T16:11:40.410Z,22.24
2019-04-25T16:14:26.476Z,22.23
2019-04-25T16:17:13.350Z,22.25
2019-04-25T16:20:00.555Z,22.38
2019-04-25T16:22:46.846Z,22.37
2019-04-25T16:25:33.357Z,22.36
2019-04-25T16:28:19.600Z,22.33
2019-04-25T16:31:07.665Z,22.34
2019-04-25T16:33:53.820Z,22.33
2019-04-25T16:36:40.098Z,22.30
2019-04-25T16:39:29.546Z,22.37
2019-04-25T16:42:17.800Z,22.38
2019-04-25T16:45:05.091Z,22.50
2019-04-25T16:47:51.070Z,22.54
2019-04-25T16:50:37.151Z,22.55
2019-04-25T16:53:27.886Z,22.50
2019-04-25T16:56:15.697Z,22.43
2019-04-25T16:59:03.030Z,22.31
2019-04-25T17:01:50.981Z,22.22
2019-04-25T17:04:37.542Z,22.12
2019-04-25T17:07:23.800Z,22.00
2019-04-25T17:10:10.810Z,21.92
2019-04-25T17:12:57.136Z,21.89
2019-04-25T17:16:14.808Z,21.85
2019-04-25T17:19:08.296Z,21.82
2019-04-25T17:21:54.661Z,21.75
2019-04-25T17:24:41.940Z,21.75
2019-04-25T17:27:29.290Z,21.66
2019-04-25T17:30:15.491Z,21.65
2019-04-25T17:33:11.125Z,21.62
2019-04-25T17:36:28.811Z,21.60
2019-04-25T17:39:25.813Z,21.53
2019-04-25T17:42:11.735Z,21.46
2019-04-25T17:44:57.820Z,21.33
2019-04-25T17:47:54.237Z,21.26
2019-04-25T17:50:32.933Z,21.20
2019-04-25T17:53:20.471Z,21.15
2019-04-25T17:56:06.460Z,21.10
2019-04-25T17:58:52.675Z,21.07
2019-04-25T18:01:38.785Z,21.04
2019-04-25T18:04:24.970Z,20.97
2019-04-25T18:07:12.010Z,20.93
2019-04-25T18:10:00.250Z,20.89
2019-04-25T18:12:46.612Z,20.78
2019-04-25T18:15:55.115Z,20.76
2019-04-25T18:18:56.550Z,20.73
2019-04-25T18:21:42.891Z,20.68
2019-04-25T18:24:47.022Z,20.59
2019-04-25T18:27:42.510Z,20.48
2019-04-25T18:30:28.985Z,20.33
2019-04-25T18:33:28.561Z,20.08
2019-04-25T18:36:35.202Z,19.96
2019-04-25T18:39:36.652Z,19.82
2019-04-25T18:42:37.840Z,19.68
2019-04-25T18:45:27.805Z,19.56
2019-04-25T18:48:15.092Z,19.49
2019-04-25T18:51:04.039Z,19.33
2019-04-25T18:54:09.761Z,19.27
2019-04-25T18:57:15.742Z,19.27
2019-04-25T19:00:39.130Z,19.32
2019-04-25T19:03:45.783Z,19.15
2019-04-25T19:06:32.145Z,18.93
2019-04-25T19:09:19.455Z,18.73
2019-04-25T19:12:06.085Z,18.08
2019-04-25T19:14:52.165Z,18.12
2019-04-25T19:17:38.872Z,18.80
2019-04-25T19:20:30.940Z,18.87
2019-04-25T19:23:17.220Z,18.77
2019-04-25T19:26:09.915Z,18.82
2019-04-25T19:28:56.325Z,18.84
2019-04-25T19:31:42.900Z,18.62
2019-04-25T19:34:29.630Z,18.52
2019-04-25T19:37:16.345Z,18.53
2019-04-25T19:40:17.274Z,18.52
2019-04-25T19:43:13.126Z,18.25
2019-04-25T19:46:02.121Z,18.12
2019-04-25T19:48:49.116Z,17.93
2019-04-25T19:51:35.398Z,17.79
2019-04-25T19:54:22.114Z,17.58
2019-04-25T19:57:08.710Z,17.59
2019-04-25T19:59:54.955Z,17.50
2019-04-25T20:03:06.850Z,17.35
2019-04-25T20:06:13.390Z,17.26
2019-04-25T20:09:25.075Z,17.26
2019-04-25T20:12:11.945Z,17.31
2019-04-25T20:14:58.410Z,17.38
2019-04-25T20:17:45.863Z,17.50
2019-04-25T20:20:32.430Z,17.58
2019-04-25T20:23:18.380Z,17.68
2019-04-25T20:26:06.420Z,17.68
2019-04-25T20:28:53.362Z,17.56
2019-04-25T20:31:41.783Z,17.32
2019-04-25T20:34:28.326Z,17.09
2019-04-25T20:37:17.280Z,16.94
2019-04-25T20:40:05.759Z,16.84
2019-04-25T20:42:53.928Z,16.67
2019-04-25T20:45:40.545Z,16.51
2019-04-25T20:48:27.775Z,16.41
2019-04-25T20:51:13.885Z,16.29
2019-04-25T20:54:00.090Z,16.26
2019-04-25T20:56:46.723Z,16.19
2019-04-25T20:59:34.161Z,16.18
2019-04-25T21:02:20.160Z,16.08
2019-04-25T21:05:06.515Z,16.03
2019-04-25T21:07:53.282Z,16.00
2019-04-25T21:10:40.485Z,15.92
2019-04-25T21:13:35.711Z,15.98
2019-04-25T21:16:40.153Z,15.91
2019-04-25T21:19:28.550Z,15.92
2019-04-25T21:22:14.876Z,15.86
2019-04-25T21:25:02.371Z,15.81
2019-04-25T21:27:48.665Z,15.75
2019-04-25T21:30:34.925Z,15.68
2019-04-25T21:33:21.330Z,15.73
2019-04-25T21:36:08.306Z,15.67
2019-04-25T21:38:55.414Z,15.60
2019-04-25T21:41:51.445Z,15.58
2019-04-25T21:44:38.660Z,15.61
2019-04-25T21:47:24.722Z,15.44
2019-04-25T21:50:10.985Z,15.43
2019-04-25T21:52:57.674Z,15.40
2019-04-25T21:55:44.330Z,15.36
2019-04-25T21:58:30.395Z,15.39
2019-04-25T22:01:19.215Z,15.35
2019-04-25T22:04:05.244Z,15.39
2019-04-25T22:06:51.635Z,15.32
2019-04-25T22:09:38.476Z,15.36
2019-04-25T22:12:24.724Z,15.28
2019-04-25T22:15:12.550Z,15.24
2019-04-25T22:18:00.151Z,15.25
2019-04-25T22:20:47.280Z,15.21
2019-04-25T22:23:33.968Z,15.13
2019-04-25T22:26:20.694Z,15.08
2019-04-25T22:29:09.992Z,15.07
2019-04-25T22:32:11.970Z,14.92
2019-04-25T22:35:07.840Z,14.93
2019-04-25T22:37:54.233Z,14.96
2019-04-25T22:40:40.479Z,14.90
2019-04-25T22:43:28.500Z,14.83
2019-04-25T22:46:25.471Z,14.70
2019-04-25T22:49:03.527Z,14.65
2019-04-25T22:51:50.184Z,14.59
2019-04-25T22:54:36.746Z,14.58
2019-04-25T22:57:22.920Z,14.50
2019-04-25T23:00:12.530Z,14.43
2019-04-25T23:03:03.949Z,14.39
2019-04-25T23:05:53.788Z,14.44
2019-04-25T23:08:40.154Z,14.46
2019-04-25T23:11:26.430Z,14.38
2019-04-25T23:14:13.240Z,14.28
2019-04-25T23:16:59.391Z,14.25
2019-04-25T23:19:45.348Z,14.25
2019-04-25T23:22:31.520Z,14.28
2019-04-25T23:25:20.954Z,14.29
2019-04-25T23:28:15.105Z,14.28
2019-04-25T23:31:12.545Z,14.24
2019-04-25T23:33:58.365Z,14.25
2019-04-25T23:36:44.574Z,14.18
2019-04-25T23:39:30.730Z,14.10
2019-04-25T23:42:16.878Z,14.09
2019-04-25T23:45:03.100Z,14.04
2019-04-25T23:47:49.810Z,14.09
2019-04-25T23:50:35.959Z,13.98
2019-04-25T23:53:22.203Z,13.92
2019-04-25T23:56:08.940Z,13.96
2019-04-25T23:58:55.654Z,13.92
